Time,TemperatureF,DewpointF,PressureIn,WindDirection,WindDirectionDegrees,WindSpeedMPH,WindSpeedGustMPH,Humidity,HourlyPrecipIn,Conditions,Clouds,dailyrainin,SolarRadiationWatts/m^2,SoftwareType,DateUTC
2013-05-04 00:01:00,29.0,16.0,-100.00,NW,323,0.0,3.0,57,0.00,,,0.00,0.000000,,2013-05-04 06:01:00,
2013-05-04 00:11:00,29.0,16.0,-100.00,NW,323,0.0,3.0,57,0.00,,,0.00,0.000000,,2013-05-04 06:11:00,
2013-05-04 00:21:00,29.0,16.0,-100.00,NW,323,0.0,3.0,57,0.00,,,0.00,0.000000,,2013-05-04 06:21:00,
2013-05-04 00:32:00,29.0,16.0,-100.00,NW,323,0.0,3.0,57,0.00,,,0.00,0.000000,,2013-05-04 06:32:00,
2013-05-04 01:01:00,26.0,16.0,-100.00,East,84,0.0,3.0,66,0.00,,,0.00,0.000000,,2013-05-04 07:01:00,
2013-05-04 01:11:00,26.0,16.0,-100.00,East,84,0.0,3.0,66,0.00,,,0.00,0.000000,,2013-05-04 07:11:00,
2013-05-04 01:21:00,26.0,16.0,-100.00,East,84,0.0,3.0,66,0.00,,,0.00,0.000000,,2013-05-04 07:21:00,
2013-05-04 01:32:00,26.0,16.0,-100.00,East,84,0.0,3.0,66,0.00,,,0.00,0.000000,,2013-05-04 07:32:00,
2013-05-04 02:01:00,24.0,16.0,-100.00,NE,52,2.0,4.0,72,0.00,,,0.00,0.000000,,2013-05-04 08:01:00,
2013-05-04 02:11:00,24.0,16.0,-100.00,NE,52,2.0,4.0,72,0.00,,,0.00,0.000000,,2013-05-04 08:11:00,
2013-05-04 02:21:00,24.0,16.0,-100.00,NE,52,2.0,4.0,72,0.00,,,0.00,0.000000,,2013-05-04 08:21:00,
2013-05-04 02:31:00,24.0,16.0,-100.00,NE,52,2.0,4.0,72,0.00,,,0.00,0.000000,,2013-05-04 08:31:00,
2013-05-04 03:02:00,25.0,17.0,-100.00,NNE,16,1.0,4.0,72,0.00,,,0.00,0.000000,,2013-05-04 09:02:00,
2013-05-04 03:11:00,25.0,17.0,-100.00,NNE,16,1.0,4.0,72,0.00,,,0.00,0.000000,,2013-05-04 09:11:00,
2013-05-04 03:21:00,25.0,17.0,-100.00,NNE,16,1.0,4.0,72,0.00,,,0.00,0.000000,,2013-05-04 09:21:00,
2013-05-04 03:32:00,25.0,17.0,-100.00,NNE,16,1.0,4.0,72,0.00,,,0.00,0.000000,,2013-05-04 09:32:00,
2013-05-04 04:03:00,26.0,18.0,-100.00,North,351,0.0,4.0,71,0.00,,,0.00,0.000000,,2013-05-04 10:03:00,
2013-05-04 04:12:00,26.0,18.0,-100.00,North,351,0.0,4.0,71,0.00,,,0.00,0.000000,,2013-05-04 10:12:00,
2013-05-04 04:23:00,26.0,18.0,-100.00,North,351,0.0,4.0,71,0.00,,,0.00,0.000000,,2013-05-04 10:23:00,
2013-05-04 04:33:00,26.0,18.0,-100.00,North,351,0.0,4.0,71,0.00,,,0.00,0.000000,,2013-05-04 10:33:00,
2013-05-04 05:02:00,23.0,16.0,-100.00,NNE,13,3.0,4.0,74,0.00,,,0.00,0.000000,,2013-05-04 11:02:00,
2013-05-04 05:11:00,23.0,16.0,-100.00,NNE,13,3.0,4.0,74,0.00,,,0.00,0.000000,,2013-05-04 11:11:00,
2013-05-04 05:21:00,23.0,16.0,-100.00,NNE,13,3.0,4.0,74,0.00,,,0.00,0.000000,,2013-05-04 11:21:00,
2013-05-04 05:32:00,23.0,16.0,-100.00,NNE,13,3.0,4.0,74,0.00,,,0.00,0.000000,,2013-05-04 11:32:00,
2013-05-04 05:36:00,22.0,15.0,-100.00,NNE,14,3.0,4.0,74,0.00,,,0.00,1.000000,,2013-05-04 11:36:00,
2013-05-04 06:14:00,22.0,15.0,-100.00,NNE,14,3.0,4.0,74,0.00,,,0.00,1.000000,,2013-05-04 12:14:00,
2013-05-04 06:29:00,22.0,15.0,-100.00,NNE,14,3.0,4.0,74,0.00,,,0.00,1.000000,,2013-05-04 12:29:00,
2013-05-04 07:01:00,26.0,15.0,-100.00,North,0,1.0,4.0,63,0.00,,,0.00,30.000000,,2013-05-04 13:01:00,
2013-05-04 07:32:00,26.0,15.0,-100.00,North,0,1.0,4.0,63,0.00,,,0.00,30.000000,,2013-05-04 13:32:00,
2013-05-04 08:02:00,36.0,14.0,-100.00,North,3,4.0,10.0,40,0.00,,,0.00,106.000000,,2013-05-04 14:02:00,
2013-05-04 08:11:00,36.0,14.0,-100.00,North,3,4.0,10.0,40,0.00,,,0.00,106.000000,,2013-05-04 14:11:00,
2013-05-04 08:21:00,36.0,14.0,-100.00,North,3,4.0,10.0,40,0.00,,,0.00,106.000000,,2013-05-04 14:21:00,
2013-05-04 08:32:00,36.0,14.0,-100.00,North,3,4.0,10.0,40,0.00,,,0.00,106.000000,,2013-05-04 14:32:00,
2013-05-04 09:02:00,38.0,15.0,-100.00,NNE,26,3.0,12.0,39,0.00,,,0.00,186.000000,,2013-05-04 15:02:00,
2013-05-04 09:12:00,38.0,15.0,-100.00,NNE,26,3.0,12.0,39,0.00,,,0.00,186.000000,,2013-05-04 15:12:00,
2013-05-04 09:22:00,38.0,15.0,-100.00,NNE,26,3.0,12.0,39,0.00,,,0.00,186.000000,,2013-05-04 15:22:00,
2013-05-04 09:33:00,38.0,15.0,-100.00,NNE,26,3.0,12.0,39,0.00,,,0.00,186.000000,,2013-05-04 15:33:00,
2013-05-04 10:03:00,39.0,15.0,-100.00,NNE,23,4.0,8.0,37,0.00,,,0.00,324.000000,,2013-05-04 16:03:00,
2013-05-04 10:12:00,39.0,15.0,-100.00,NNE,23,4.0,8.0,37,0.00,,,0.00,324.000000,,2013-05-04 16:12:00,
2013-05-04 10:22:00,39.0,15.0,-100.00,NNE,23,4.0,8.0,37,0.00,,,0.00,324.000000,,2013-05-04 16:22:00,
2013-05-04 10:33:00,39.0,15.0,-100.00,NNE,23,4.0,8.0,37,0.00,,,0.00,324.000000,,2013-05-04 16:33:00,
2013-05-04 11:02:00,44.0,17.0,-100.00,NNE,12,4.0,10.0,33,0.00,,,0.00,667.000000,,2013-05-04 17:02:00,
2013-05-04 11:12:00,44.0,17.0,-100.00,NNE,12,4.0,10.0,33,0.00,,,0.00,667.000000,,2013-05-04 17:12:00,
2013-05-04 11:22:00,44.0,17.0,-100.00,NNE,12,4.0,10.0,33,0.00,,,0.00,667.000000,,2013-05-04 17:22:00,
2013-05-04 11:32:00,44.0,17.0,-100.00,NNE,12,4.0,10.0,33,0.00,,,0.00,667.000000,,2013-05-04 17:32:00,
2013-05-04 12:01:00,46.0,16.0,-100.00,North,4,4.0,9.0,30,0.00,,,0.00,691.000000,,2013-05-04 18:01:00,
2013-05-04 12:12:00,46.0,16.0,-100.00,North,4,4.0,9.0,30,0.00,,,0.00,691.000000,,2013-05-04 18:12:00,
2013-05-04 12:21:00,46.0,16.0,-100.00,North,4,4.0,9.0,30,0.00,,,0.00,691.000000,,2013-05-04 18:21:00,
2013-05-04 12:32:00,46.0,16.0,-100.00,North,4,4.0,9.0,30,0.00,,,0.00,691.000000,,2013-05-04 18:32:00,
2013-05-04 13:01:00,48.0,17.0,-100.00,NNW,341,4.0,11.0,29,0.00,,,0.00,776.000000,,2013-05-04 19:01:00,
2013-05-04 13:11:00,48.0,17.0,-100.00,NNW,341,4.0,11.0,29,0.00,,,0.00,776.000000,,2013-05-04 19:11:00,
2013-05-04 13:21:00,48.0,17.0,-100.00,NNW,341,4.0,11.0,29,0.00,,,0.00,776.000000,,2013-05-04 19:21:00,
2013-05-04 13:32:00,48.0,17.0,-100.00,NNW,341,4.0,11.0,29,0.00,,,0.00,776.000000,,2013-05-04 19:32:00,
2013-05-04 14:02:00,48.0,16.0,-100.00,NW,314,6.0,11.0,28,0.00,,,0.00,717.000000,,2013-05-04 20:02:00,
2013-05-04 14:11:00,48.0,16.0,-100.00,NW,314,6.0,11.0,28,0.00,,,0.00,717.000000,,2013-05-04 20:11:00,
2013-05-04 14:22:00,48.0,16.0,-100.00,NW,314,6.0,11.0,28,0.00,,,0.00,717.000000,,2013-05-04 20:22:00,
2013-05-04 14:32:00,48.0,16.0,-100.00,NW,314,6.0,11.0,28,0.00,,,0.00,717.000000,,2013-05-04 20:32:00,
2013-05-04 15:02:00,48.0,17.0,-100.00,North,352,3.0,12.0,29,0.00,,,0.00,469.000000,,2013-05-04 21:02:00,
2013-05-04 15:12:00,48.0,17.0,-100.00,North,352,3.0,12.0,29,0.00,,,0.00,469.000000,,2013-05-04 21:12:00,
2013-05-04 15:22:00,48.0,17.0,-100.00,North,352,3.0,12.0,29,0.00,,,0.00,469.000000,,2013-05-04 21:22:00,
2013-05-04 15:33:00,48.0,17.0,-100.00,North,352,3.0,12.0,29,0.00,,,0.00,469.000000,,2013-05-04 21:33:00,
2013-05-04 16:03:00,46.0,16.0,-100.00,ENE,68,3.0,10.0,29,0.00,,,0.00,367.000000,,2013-05-04 22:03:00,
2013-05-04 16:12:00,46.0,16.0,-100.00,ENE,68,3.0,10.0,29,0.00,,,0.00,367.000000,,2013-05-04 22:12:00,
2013-05-04 16:22:00,46.0,16.0,-100.00,ENE,68,3.0,10.0,29,0.00,,,0.00,367.000000,,2013-05-04 22:22:00,
2013-05-04 16:33:00,46.0,16.0,-100.00,ENE,68,3.0,10.0,29,0.00,,,0.00,367.000000,,2013-05-04 22:33:00,
2013-05-04 17:02:00,46.0,15.0,-100.00,NE,36,3.0,8.0,28,0.00,,,0.00,252.000000,,2013-05-04 23:02:00,
2013-05-04 17:12:00,46.0,15.0,-100.00,NE,36,3.0,8.0,28,0.00,,,0.00,252.000000,,2013-05-04 23:12:00,
2013-05-04 17:22:00,46.0,15.0,-100.00,NE,36,3.0,8.0,28,0.00,,,0.00,252.000000,,2013-05-04 23:22:00,
2013-05-04 17:32:00,46.0,15.0,-100.00,NE,36,3.0,8.0,28,0.00,,,0.00,252.000000,,2013-05-04 23:32:00,
2013-05-04 18:02:00,44.0,14.0,-100.00,ENE,74,4.0,8.0,29,0.00,,,0.00,229.000000,,2013-05-05 00:02:00,
2013-05-04 18:11:00,44.0,14.0,-100.00,ENE,74,4.0,8.0,29,0.00,,,0.00,229.000000,,2013-05-05 00:11:00,
2013-05-04 18:21:00,44.0,14.0,-100.00,ENE,74,4.0,8.0,29,0.00,,,0.00,229.000000,,2013-05-05 00:21:00,
2013-05-04 18:32:00,44.0,14.0,-100.00,ENE,74,4.0,8.0,29,0.00,,,0.00,229.000000,,2013-05-05 00:32:00,
2013-05-04 19:01:00,43.0,14.0,-100.00,NNE,14,3.0,7.0,30,0.00,,,0.00,133.000000,,2013-05-05 01:01:00,
2013-05-04 19:11:00,43.0,14.0,-100.00,NNE,14,3.0,7.0,30,0.00,,,0.00,133.000000,,2013-05-05 01:11:00,
2013-05-04 19:21:00,43.0,14.0,-100.00,NNE,14,3.0,7.0,30,0.00,,,0.00,133.000000,,2013-05-05 01:21:00,
2013-05-04 19:32:00,43.0,14.0,-100.00,NNE,14,3.0,7.0,30,0.00,,,0.00,133.000000,,2013-05-05 01:32:00,
2013-05-04 20:02:00,39.0,13.0,-100.00,NNE,29,3.0,9.0,34,0.00,,,0.00,52.000000,,2013-05-05 02:02:00,
2013-05-04 20:11:00,39.0,13.0,-100.00,NNE,29,3.0,9.0,34,0.00,,,0.00,52.000000,,2013-05-05 02:11:00,
2013-05-04 20:22:00,39.0,13.0,-100.00,NNE,29,3.0,9.0,34,0.00,,,0.00,52.000000,,2013-05-05 02:22:00,
2013-05-04 20:31:00,39.0,13.0,-100.00,NNE,29,3.0,9.0,34,0.00,,,0.00,52.000000,,2013-05-05 02:31:00,
2013-05-04 21:01:00,34.0,12.0,-100.00,North,4,0.0,7.0,40,0.00,,,0.00,4.000000,,2013-05-05 03:01:00,
2013-05-04 21:11:00,34.0,12.0,-100.00,North,4,0.0,7.0,40,0.00,,,0.00,4.000000,,2013-05-05 03:11:00,
2013-05-04 21:22:00,34.0,12.0,-100.00,North,4,0.0,7.0,40,0.00,,,0.00,4.000000,,2013-05-05 03:22:00,
2013-05-04 21:33:00,34.0,12.0,-100.00,North,4,0.0,7.0,40,0.00,,,0.00,4.000000,,2013-05-05 03:33:00,
2013-05-04 22:02:00,30.0,13.0,-100.00,North,11,2.0,4.0,48,0.00,,,0.00,0.000000,,2013-05-05 04:02:00,
2013-05-04 22:12:00,30.0,13.0,-100.00,North,11,2.0,4.0,48,0.00,,,0.00,0.000000,,2013-05-05 04:12:00,
2013-05-04 22:23:00,30.0,13.0,-100.00,North,11,2.0,4.0,48,0.00,,,0.00,0.000000,,2013-05-05 04:23:00,
2013-05-04 22:32:00,30.0,13.0,-100.00,North,11,2.0,4.0,48,0.00,,,0.00,0.000000,,2013-05-05 04:32:00,
2013-05-04 23:02:00,27.0,12.0,-100.00,NNW,334,2.0,3.0,52,0.00,,,0.00,0.000000,,2013-05-05 05:02:00,
2013-05-04 23:12:00,27.0,12.0,-100.00,NNW,334,2.0,3.0,52,0.00,,,0.00,0.000000,,2013-05-05 05:12:00,
2013-05-04 23:21:00,27.0,12.0,-100.00,NNW,334,2.0,3.0,52,0.00,,,0.00,0.000000,,2013-05-05 05:21:00,
2013-05-04 23:32:00,27.0,12.0,-100.00,NNW,334,2.0,3.0,52,0.00,,,0.00,0.000000,,2013-05-05 05:32:00,